createdAt,value
2016-12-07T19:30:06.010Z,922.62
2016-12-07T19:30:22.754Z,922.63
2016-12-07T19:30:39.494Z,922.63
2016-12-07T19:30:56.218Z,922.62
2016-12-07T19:31:12.928Z,922.61
2016-12-07T19:31:29.639Z,922.59
2016-12-07T19:31:46.376Z,922.57
2016-12-07T19:32:03.654Z,922.62
2016-12-07T19:32:20.389Z,922.64
2016-12-07T19:32:37.108Z,922.62
2016-12-07T19:32:54.325Z,922.64
2016-12-07T19:33:11.006Z,922.64
2016-12-07T19:33:28.255Z,922.64
2016-12-07T19:33:44.999Z,922.66
2016-12-07T19:34:01.745Z,922.63
2016-12-07T19:34:18.996Z,922.64
2016-12-07T19:34:35.719Z,922.62
2016-12-07T19:34:52.929Z,922.61
2016-12-07T19:35:10.169Z,922.62
2016-12-07T19:35:26.884Z,922.62
2016-12-07T19:35:43.622Z,922.62
2016-12-07T19:36:00.407Z,922.61
2016-12-07T19:36:17.131Z,922.63
2016-12-07T19:36:33.830Z,922.65
2016-12-07T19:36:50.573Z,922.6
2016-12-07T19:37:07.302Z,922.61
2016-12-07T19:37:24.051Z,922.58
2016-12-07T19:37:40.793Z,922.58
2016-12-07T19:37:58.011Z,922.61
2016-12-07T19:38:14.734Z,922.59
2016-12-07T19:38:31.502Z,922.59
2016-12-07T19:38:48.202Z,922.61
2016-12-07T19:39:04.919Z,922.62
2016-12-07T19:39:21.650Z,922.63
2016-12-07T19:39:38.377Z,922.64
2016-12-07T19:39:55.081Z,922.6
2016-12-07T19:40:11.805Z,922.6
2016-12-07T19:40:28.523Z,922.61
2016-12-07T19:40:45.268Z,922.59
2016-12-07T19:41:01.975Z,922.61
2016-12-07T19:41:18.688Z,922.63
2016-12-07T19:41:35.429Z,922.63
2016-12-07T19:41:52.169Z,922.63
2016-12-07T19:42:08.886Z,922.63
2016-12-07T19:42:25.593Z,922.64
2016-12-07T19:42:42.825Z,922.68
2016-12-07T19:42:59.552Z,922.66
2016-12-07T19:43:16.303Z,922.66
2016-12-07T19:43:33.516Z,922.7
2016-12-07T19:43:50.276Z,922.72
2016-12-07T19:44:07.004Z,922.74
2016-12-07T19:44:23.725Z,922.76
2016-12-07T19:44:40.453Z,922.73
2016-12-07T19:44:57.161Z,922.77
2016-12-07T19:45:13.881Z,922.77
2016-12-07T19:45:30.588Z,922.78
2016-12-07T19:45:47.324Z,922.78
2016-12-07T19:46:04.055Z,922.83
2016-12-07T19:46:20.782Z,922.8
2016-12-07T19:46:37.544Z,922.83
2016-12-07T19:46:54.272Z,922.78
2016-12-07T19:47:11.012Z,922.79
2016-12-07T19:47:27.748Z,922.78
2016-12-07T19:47:44.498Z,922.8
2016-12-07T19:48:01.227Z,922.74
2016-12-07T19:48:17.970Z,922.76
2016-12-07T19:48:34.711Z,922.75
2016-12-07T19:48:51.433Z,922.78
2016-12-07T19:49:08.124Z,922.76
2016-12-07T19:49:24.863Z,922.75
2016-12-07T19:49:41.583Z,922.72
2016-12-07T19:49:58.326Z,922.76
2016-12-07T19:50:15.202Z,922.72
2016-12-07T19:50:32.469Z,922.72
2016-12-07T19:50:49.218Z,922.76
2016-12-07T19:51:05.915Z,922.7
2016-12-07T19:51:22.629Z,922.7
2016-12-07T19:51:39.335Z,922.71
2016-12-07T19:51:56.059Z,922.68
2016-12-07T19:52:12.781Z,922.7
2016-12-07T19:52:29.494Z,922.72
2016-12-07T19:52:46.237Z,922.73
2016-12-07T19:53:02.966Z,922.73
2016-12-07T19:53:19.705Z,922.76
2016-12-07T19:53:37.394Z,922.74
2016-12-07T19:53:54.593Z,922.71
2016-12-07T19:54:11.367Z,922.73
2016-12-07T19:54:28.099Z,922.72
2016-12-07T19:54:44.879Z,922.72
2016-12-07T19:55:01.633Z,922.68
2016-12-07T19:55:18.348Z,922.68
2016-12-07T19:55:35.065Z,922.7
2016-12-07T19:55:51.846Z,922.66
2016-12-07T19:56:08.582Z,922.65
2016-12-07T19:56:25.328Z,922.65
2016-12-07T19:56:42.051Z,922.63
2016-12-07T19:56:58.787Z,922.63
2016-12-07T19:57:16.025Z,922.61
2016-12-07T19:57:32.744Z,922.65
2016-12-07T19:57:49.509Z,922.64
2016-12-07T19:58:06.227Z,922.68
2016-12-07T19:58:22.927Z,922.73
2016-12-07T19:58:40.172Z,922.73
2016-12-07T19:58:56.947Z,922.71
2016-12-07T19:59:13.653Z,922.74
2016-12-07T19:59:30.401Z,922.74
2016-12-07T19:59:47.163Z,922.75
2016-12-07T20:00:03.840Z,922.81
2016-12-07T20:00:20.556Z,922.79
2016-12-07T20:00:37.262Z,922.81
2016-12-07T20:00:53.986Z,922.76
2016-12-07T20:01:10.707Z,922.76
2016-12-07T20:01:27.436Z,922.76
2016-12-07T20:01:44.154Z,922.82
2016-12-07T20:02:01.389Z,922.81
2016-12-07T20:02:18.119Z,922.8
2016-12-07T20:02:34.827Z,922.77
2016-12-07T20:02:51.522Z,922.79
2016-12-07T20:03:08.753Z,922.81
2016-12-07T20:03:25.477Z,922.78
2016-12-07T20:03:42.202Z,922.75
2016-12-07T20:03:58.944Z,922.73
2016-12-07T20:04:15.663Z,922.7
2016-12-07T20:04:32.924Z,922.69
2016-12-07T20:04:49.649Z,922.7
2016-12-07T20:05:06.433Z,922.65
2016-12-07T20:05:23.164Z,922.62
2016-12-07T20:05:39.909Z,922.66
2016-12-07T20:05:56.690Z,922.65
2016-12-07T20:06:13.475Z,922.62
2016-12-07T20:06:30.185Z,922.62
2016-12-07T20:06:46.939Z,922.63
2016-12-07T20:07:03.670Z,922.62
2016-12-07T20:07:20.379Z,922.58
2016-12-07T20:07:37.084Z,922.58
2016-12-07T20:07:53.809Z,922.55
2016-12-07T20:08:10.522Z,922.55
2016-12-07T20:08:27.313Z,922.64
2016-12-07T20:08:44.034Z,922.59
2016-12-07T20:09:00.755Z,922.55
2016-12-07T20:09:17.457Z,922.53
2016-12-07T20:09:34.182Z,922.57
2016-12-07T20:09:50.972Z,922.5
2016-12-07T20:10:07.781Z,922.51
2016-12-07T20:10:24.509Z,922.54
2016-12-07T20:10:41.245Z,922.52
2016-12-07T20:10:57.951Z,922.49
2016-12-07T20:11:14.678Z,922.48
2016-12-07T20:11:31.383Z,922.49
2016-12-07T20:11:48.625Z,922.48
2016-12-07T20:12:05.370Z,922.44
2016-12-07T20:12:22.100Z,922.47
2016-12-07T20:12:38.835Z,922.48
2016-12-07T20:12:55.543Z,922.46
2016-12-07T20:13:12.263Z,922.52
2016-12-07T20:13:28.975Z,922.5
2016-12-07T20:13:46.272Z,922.54
2016-12-07T20:14:02.963Z,922.49
2016-12-07T20:14:19.656Z,922.51
2016-12-07T20:14:36.383Z,922.5
2016-12-07T20:14:53.094Z,922.51
2016-12-07T20:15:09.814Z,922.52
2016-12-07T20:15:26.553Z,922.5
2016-12-07T20:15:43.281Z,922.51
2016-12-07T20:16:00.015Z,922.52
2016-12-07T20:16:16.718Z,922.56
2016-12-07T20:16:33.391Z,922.57
2016-12-07T20:16:50.130Z,922.6
2016-12-07T20:17:07.374Z,922.64
2016-12-07T20:17:24.077Z,922.61
2016-12-07T20:17:40.800Z,922.61
2016-12-07T20:17:57.534Z,922.64
2016-12-07T20:18:14.265Z,922.64
2016-12-07T20:18:30.991Z,922.62
2016-12-07T20:18:47.709Z,922.62
2016-12-07T20:19:04.429Z,922.64
2016-12-07T20:19:21.152Z,922.64
2016-12-07T20:19:37.880Z,922.64
2016-12-07T20:19:54.610Z,922.58
2016-12-07T20:20:11.407Z,922.62
2016-12-07T20:20:28.119Z,922.61
2016-12-07T20:20:44.878Z,922.6
2016-12-07T20:21:01.606Z,922.62
2016-12-07T20:21:18.336Z,922.6
2016-12-07T20:21:35.059Z,922.59
2016-12-07T20:21:52.280Z,922.63
2016-12-07T20:22:09.005Z,922.64
2016-12-07T20:22:25.743Z,922.65
2016-12-07T20:22:42.472Z,922.68
2016-12-07T20:22:59.705Z,922.68
2016-12-07T20:23:16.453Z,922.66
2016-12-07T20:23:33.170Z,922.67
2016-12-07T20:23:49.917Z,922.67
2016-12-07T20:24:07.154Z,922.66
2016-12-07T20:24:23.871Z,922.68
2016-12-07T20:24:40.581Z,922.67
2016-12-07T20:24:57.278Z,922.62
2016-12-07T20:25:13.996Z,922.64
2016-12-07T20:25:30.704Z,922.63
2016-12-07T20:25:47.411Z,922.62
2016-12-07T20:26:04.116Z,922.61
2016-12-07T20:26:20.822Z,922.6
2016-12-07T20:26:37.537Z,922.58
2016-12-07T20:26:54.288Z,922.61
2016-12-07T20:27:10.972Z,922.56
2016-12-07T20:27:27.686Z,922.56
2016-12-07T20:27:44.426Z,922.54
2016-12-07T20:28:01.159Z,922.52
2016-12-07T20:28:17.902Z,922.55
2016-12-07T20:28:34.624Z,922.53
2016-12-07T20:28:51.361Z,922.54
2016-12-07T20:29:08.104Z,922.51
2016-12-07T20:29:24.808Z,922.49
2016-12-07T20:29:41.527Z,922.49
2016-12-07T20:29:58.236Z,922.47
2016-12-07T20:30:14.983Z,922.46
2016-12-07T20:30:31.709Z,922.42
2016-12-07T20:30:48.437Z,922.45
2016-12-07T20:31:05.145Z,922.45
2016-12-07T20:31:21.856Z,922.42
2016-12-07T20:31:38.561Z,922.41
2016-12-07T20:31:55.297Z,922.43
2016-12-07T20:32:12.004Z,922.36
2016-12-07T20:32:28.733Z,922.41
2016-12-07T20:32:45.468Z,922.4
2016-12-07T20:33:02.184Z,922.39
2016-12-07T20:33:18.899Z,922.4
2016-12-07T20:33:35.638Z,922.38
2016-12-07T20:33:52.324Z,922.43
2016-12-07T20:34:09.035Z,922.4
2016-12-07T20:34:25.740Z,922.41
2016-12-07T20:34:42.439Z,922.43
2016-12-07T20:34:59.145Z,922.44
2016-12-07T20:35:15.864Z,922.44
2016-12-07T20:35:32.584Z,922.44
2016-12-07T20:35:49.302Z,922.41
2016-12-07T20:36:06.040Z,922.45
2016-12-07T20:36:22.759Z,922.41
2016-12-07T20:36:39.487Z,922.42
2016-12-07T20:36:56.216Z,922.4
2016-12-07T20:37:13.473Z,922.4
2016-12-07T20:37:30.218Z,922.42
2016-12-07T20:37:46.931Z,922.45
2016-12-07T20:38:03.686Z,922.45
2016-12-07T20:38:20.390Z,922.42
2016-12-07T20:38:37.103Z,922.41
2016-12-07T20:38:53.815Z,922.37
2016-12-07T20:39:11.007Z,922.37
2016-12-07T20:39:28.247Z,922.37
2016-12-07T20:39:44.941Z,922.38
2016-12-07T20:40:01.644Z,922.37
2016-12-07T20:40:18.359Z,922.36
2016-12-07T20:40:35.072Z,922.4
2016-12-07T20:40:52.324Z,922.37
2016-12-07T20:41:09.058Z,922.37
2016-12-07T20:41:25.781Z,922.41
2016-12-07T20:41:42.474Z,922.4
2016-12-07T20:41:59.760Z,922.37
2016-12-07T20:42:16.465Z,922.38
2016-12-07T20:42:33.155Z,922.43
2016-12-07T20:42:49.883Z,922.41
2016-12-07T20:43:06.597Z,922.43
2016-12-07T20:43:23.323Z,922.39
2016-12-07T20:43:39.998Z,922.43
2016-12-07T20:43:56.737Z,922.42
2016-12-07T20:44:13.478Z,922.41
2016-12-07T20:44:30.232Z,922.41
2016-12-07T20:44:46.959Z,922.37
2016-12-07T20:45:03.686Z,922.4
2016-12-07T20:45:20.387Z,922.42
2016-12-07T20:45:37.191Z,922.44
2016-12-07T20:46:55.267Z,922.43
2016-12-07T20:47:12.035Z,922.37
2016-12-07T20:47:43.280Z,922.43
2016-12-07T20:48:00.002Z,922.4
2016-12-07T20:48:16.713Z,922.43
2016-12-07T20:48:33.423Z,922.41
2016-12-07T20:48:50.124Z,922.42
2016-12-07T20:49:06.857Z,922.4
2016-12-07T20:49:23.591Z,922.41
2016-12-07T20:49:40.300Z,922.42
2016-12-07T20:49:57.011Z,922.43
2016-12-07T20:50:13.709Z,922.44
2016-12-07T20:50:30.408Z,922.43
2016-12-07T20:50:47.156Z,922.41
2016-12-07T20:51:04.362Z,922.42
2016-12-07T20:51:21.100Z,922.43
2016-12-07T20:51:37.841Z,922.43
2016-12-07T20:51:55.067Z,922.43
2016-12-07T20:52:11.786Z,922.43
2016-12-07T20:52:28.525Z,922.45
2016-12-07T20:52:45.264Z,922.42
2016-12-07T20:53:02.013Z,922.49
2016-12-07T20:53:18.720Z,922.45
2016-12-07T20:53:35.431Z,922.45
2016-12-07T20:53:52.152Z,922.46
2016-12-07T20:54:08.851Z,922.48
2016-12-07T20:54:25.581Z,922.46
2016-12-07T20:54:42.523Z,922.5
2016-12-07T20:54:59.772Z,922.46
2016-12-07T20:55:16.498Z,922.44
2016-12-07T20:55:33.208Z,922.43
2016-12-07T20:55:49.922Z,922.4
2016-12-07T20:56:06.624Z,922.41
2016-12-07T20:56:23.848Z,922.39
2016-12-07T20:56:40.583Z,922.39
2016-12-07T20:56:57.826Z,922.4
2016-12-07T20:57:15.050Z,922.38
2016-12-07T20:57:32.276Z,922.38
2016-12-07T20:57:48.992Z,922.37
2016-12-07T20:58:05.721Z,922.37
2016-12-07T20:58:22.442Z,922.33
2016-12-07T20:58:39.669Z,922.32
2016-12-07T20:58:56.362Z,922.34
2016-12-07T20:59:13.070Z,922.35
2016-12-07T20:59:29.788Z,922.37
2016-12-07T20:59:46.490Z,922.33
2016-12-07T21:00:03.224Z,922.36
2016-12-07T21:00:19.985Z,922.33
2016-12-07T21:00:36.719Z,922.34
2016-12-07T21:00:53.430Z,922.3
2016-12-07T21:01:10.152Z,922.31
2016-12-07T21:01:27.391Z,922.32
2016-12-07T21:01:44.630Z,922.33
2016-12-07T21:02:01.337Z,922.32
2016-12-07T21:02:18.058Z,922.34
2016-12-07T21:02:34.760Z,922.32
2016-12-07T21:02:51.504Z,922.31
2016-12-07T21:03:08.222Z,922.29
2016-12-07T21:03:24.950Z,922.28
2016-12-07T21:03:41.658Z,922.29
2016-12-07T21:03:58.374Z,922.27
2016-12-07T21:04:15.091Z,922.25
2016-12-07T21:04:31.789Z,922.26
2016-12-07T21:04:48.500Z,922.29
2016-12-07T21:05:05.207Z,922.24
2016-12-07T21:05:21.927Z,922.29
2016-12-07T21:05:38.687Z,922.23
2016-12-07T21:05:55.417Z,922.25
2016-12-07T21:06:12.160Z,922.23
2016-12-07T21:06:29.385Z,922.23
2016-12-07T21:06:46.114Z,922.22
2016-12-07T21:07:02.840Z,922.24
2016-12-07T21:07:19.550Z,922.23
2016-12-07T21:07:36.247Z,922.25
2016-12-07T21:07:52.975Z,922.25
2016-12-07T21:08:09.696Z,922.2
2016-12-07T21:08:26.405Z,922.22
2016-12-07T21:08:43.131Z,922.2
2016-12-07T21:08:59.838Z,922.23
2016-12-07T21:09:16.547Z,922.2
2016-12-07T21:09:33.263Z,922.2
2016-12-07T21:09:49.967Z,922.22
2016-12-07T21:10:07.233Z,922.26
2016-12-07T21:10:23.969Z,922.24
2016-12-07T21:10:40.715Z,922.21
2016-12-07T21:10:57.434Z,922.21
2016-12-07T21:11:14.174Z,922.24
2016-12-07T21:11:30.889Z,922.21
2016-12-07T21:11:47.635Z,922.24
2016-12-07T21:12:04.898Z,922.2
2016-12-07T21:12:21.620Z,922.23
2016-12-07T21:12:38.340Z,922.23
2016-12-07T21:12:55.054Z,922.2
2016-12-07T21:13:11.776Z,922.17
2016-12-07T21:13:28.524Z,922.22
2016-12-07T21:13:45.225Z,922.19
2016-12-07T21:14:01.954Z,922.19
2016-12-07T21:14:18.679Z,922.18
2016-12-07T21:14:35.937Z,922.19
2016-12-07T21:14:52.671Z,922.23
2016-12-07T21:15:09.374Z,922.22
2016-12-07T21:15:26.087Z,922.23
2016-12-07T21:15:42.831Z,922.26
2016-12-07T21:15:59.550Z,922.28
2016-12-07T21:16:16.772Z,922.22
2016-12-07T21:16:33.480Z,922.25
2016-12-07T21:16:50.725Z,922.21
2016-12-07T21:17:07.461Z,922.21
2016-12-07T21:17:24.204Z,922.22
2016-12-07T21:17:40.908Z,922.22
2016-12-07T21:17:57.612Z,922.23
2016-12-07T21:18:14.319Z,922.22
2016-12-07T21:18:31.038Z,922.25
2016-12-07T21:18:47.773Z,922.27
2016-12-07T21:19:04.498Z,922.27
2016-12-07T21:19:21.202Z,922.22
2016-12-07T21:19:37.906Z,922.21
2016-12-07T21:19:54.626Z,922.2
2016-12-07T21:20:11.344Z,922.2
2016-12-07T21:20:28.080Z,922.21
2016-12-07T21:20:44.804Z,922.16
2016-12-07T21:21:01.535Z,922.18
2016-12-07T21:21:18.248Z,922.14
2016-12-07T21:21:34.971Z,922.19
2016-12-07T21:21:51.677Z,922.14
2016-12-07T21:22:08.407Z,922.13
2016-12-07T21:22:25.170Z,922.12
2016-12-07T21:22:41.880Z,922.1
2016-12-07T21:22:59.091Z,922.13
2016-12-07T21:23:15.813Z,922.09
2016-12-07T21:23:32.518Z,922.09
2016-12-07T21:23:49.230Z,922.08
2016-12-07T21:24:05.931Z,922.08
2016-12-07T21:24:22.680Z,922.08
2016-12-07T21:24:39.400Z,922.07
2016-12-07T21:24:56.093Z,922.05
2016-12-07T21:25:12.819Z,922.05
2016-12-07T21:25:29.537Z,922.03
2016-12-07T21:25:46.266Z,922.04
2016-12-07T21:26:03.007Z,922
2016-12-07T21:26:19.734Z,922.01
2016-12-07T21:26:36.453Z,921.97
2016-12-07T21:26:53.160Z,921.96
2016-12-07T21:27:09.889Z,921.95
2016-12-07T21:27:26.608Z,921.96
2016-12-07T21:27:43.338Z,921.99
2016-12-07T21:28:00.052Z,921.93
2016-12-07T21:28:16.766Z,921.95
2016-12-07T21:28:33.493Z,921.96
2016-12-07T21:28:50.230Z,921.93
2016-12-07T21:29:06.961Z,921.93
2016-12-07T21:29:23.718Z,921.92
2016-12-07T21:29:40.487Z,921.93
2016-12-07T21:29:57.220Z,921.96
2016-12-07T21:30:14.484Z,921.94
2016-12-07T21:30:31.213Z,921.95
2016-12-07T21:30:47.905Z,921.92
2016-12-07T21:31:04.633Z,921.94
2016-12-07T21:31:21.374Z,921.94
2016-12-07T21:31:38.135Z,921.95
2016-12-07T21:31:54.880Z,921.95
2016-12-07T21:32:12.142Z,921.93
2016-12-07T21:32:28.867Z,921.93
2016-12-07T21:32:45.568Z,921.93
2016-12-07T21:33:02.288Z,921.95
2016-12-07T21:33:19.031Z,921.92
2016-12-07T21:33:35.765Z,921.91
2016-12-07T21:33:52.447Z,921.88
2016-12-07T21:34:09.151Z,921.89
2016-12-07T21:34:25.896Z,921.89
2016-12-07T21:34:42.603Z,921.88
2016-12-07T21:34:59.318Z,921.89
2016-12-07T21:35:16.051Z,921.89
2016-12-07T21:35:32.823Z,921.94
2016-12-07T21:35:49.536Z,921.94
2016-12-07T21:36:06.239Z,921.92
2016-12-07T21:36:22.960Z,921.91
2016-12-07T21:36:39.660Z,921.91
2016-12-07T21:36:56.375Z,921.93
2016-12-07T21:37:13.091Z,921.93
2016-12-07T21:37:29.790Z,921.92
2016-12-07T21:37:46.530Z,921.94
2016-12-07T21:38:03.227Z,921.93
2016-12-07T21:38:19.914Z,921.94
2016-12-07T21:38:36.640Z,921.95
2016-12-07T21:38:53.371Z,921.97
2016-12-07T21:39:10.091Z,921.98
2016-12-07T21:39:26.822Z,922
2016-12-07T21:39:43.531Z,922
2016-12-07T21:40:00.642Z,922.05
2016-12-07T21:40:17.350Z,922.05
2016-12-07T21:40:34.099Z,922.02
2016-12-07T21:40:50.820Z,922.05
2016-12-07T21:41:07.533Z,922.07
2016-12-07T21:41:24.259Z,922.07
2016-12-07T21:41:41.499Z,922.05
2016-12-07T21:41:58.226Z,922.05
2016-12-07T21:42:14.939Z,922
2016-12-07T21:42:31.644Z,922
2016-12-07T21:42:48.342Z,922.03
2016-12-07T21:43:05.051Z,921.98
2016-12-07T21:43:21.790Z,922.01
2016-12-07T21:43:38.555Z,921.99
2016-12-07T21:43:55.265Z,922.02
2016-12-07T21:44:12.008Z,922.03
2016-12-07T21:44:28.714Z,922.02
2016-12-07T21:44:45.447Z,922
2016-12-07T21:45:02.198Z,922.04
2016-12-07T21:45:18.908Z,922.07
2016-12-07T21:45:35.611Z,922.01
2016-12-07T21:45:52.342Z,922.03
2016-12-07T21:46:09.602Z,922.02
2016-12-07T21:46:26.326Z,922.03
2016-12-07T21:46:43.025Z,922.03
2016-12-07T21:46:59.751Z,922.05
2016-12-07T21:47:16.480Z,922.04
2016-12-07T21:47:33.216Z,922.08
2016-12-07T21:47:49.955Z,922.06
2016-12-07T21:48:06.667Z,922.12
2016-12-07T21:48:23.377Z,922.1
2016-12-07T21:48:40.077Z,922.1
2016-12-07T21:48:56.805Z,922.14
2016-12-07T21:49:13.533Z,922.1
2016-12-07T21:49:30.266Z,922.15
2016-12-07T21:49:46.986Z,922.11
2016-12-07T21:50:03.714Z,922.14
2016-12-07T21:50:21.012Z,922.11
2016-12-07T21:50:37.715Z,922.16
2016-12-07T21:50:54.450Z,922.17
2016-12-07T21:51:11.150Z,922.17
2016-12-07T21:51:27.880Z,922.17
2016-12-07T21:51:44.620Z,922.18
2016-12-07T21:52:01.324Z,922.2
2016-12-07T21:52:18.036Z,922.21
2016-12-07T21:52:34.737Z,922.2
2016-12-07T21:52:51.467Z,922.22
2016-12-07T21:53:08.185Z,922.19
2016-12-07T21:53:24.887Z,922.22
2016-12-07T21:53:41.578Z,922.17
2016-12-07T21:53:58.275Z,922.22
2016-12-07T21:54:15.001Z,922.21
2016-12-07T21:54:32.253Z,922.18
2016-12-07T21:54:48.975Z,922.17
2016-12-07T21:55:05.724Z,922.18
2016-12-07T21:55:23.477Z,922.18
2016-12-07T21:55:40.164Z,922.17
2016-12-07T21:55:56.879Z,922.17
2016-12-07T21:56:13.645Z,922.13
2016-12-07T21:56:30.357Z,922.17
2016-12-07T21:56:47.037Z,922.13
2016-12-07T21:57:03.767Z,922.1
2016-12-07T21:57:20.991Z,922.1
2016-12-07T21:57:37.692Z,922.08
2016-12-07T21:57:54.407Z,922.11
2016-12-07T21:58:11.101Z,922.1
2016-12-07T21:58:27.853Z,922.11
2016-12-07T21:58:44.585Z,922.1
2016-12-07T21:59:01.308Z,922.06
2016-12-07T21:59:18.032Z,922.09
2016-12-07T21:59:34.758Z,922.07
2016-12-07T21:59:51.486Z,922.12
2016-12-07T22:00:08.187Z,922.1
2016-12-07T22:00:24.930Z,922.1
2016-12-07T22:00:41.611Z,922.15
2016-12-07T22:00:58.329Z,922.15
2016-12-07T22:01:34.256Z,922.16
2016-12-07T22:02:35.349Z,922.2
2016-12-07T22:02:52.031Z,922.23
2016-12-07T22:03:09.226Z,922.25
2016-12-07T22:03:25.898Z,922.22
2016-12-07T22:03:42.582Z,922.21
2016-12-07T22:03:59.251Z,922.28
2016-12-07T22:04:15.958Z,922.23
2016-12-07T22:04:32.637Z,922.22
2016-12-07T22:04:49.308Z,922.22
2016-12-07T22:05:06.005Z,922.25
2016-12-07T22:05:22.669Z,922.26
2016-12-07T22:05:39.319Z,922.23
2016-12-07T22:05:55.995Z,922.23
2016-12-07T22:06:12.650Z,922.27
2016-12-07T22:06:29.331Z,922.26
2016-12-07T22:06:46.056Z,922.24
2016-12-07T22:07:02.847Z,922.24
2016-12-07T22:07:19.593Z,922.24
2016-12-07T22:07:36.368Z,922.26
2016-12-07T22:07:53.126Z,922.25
2016-12-07T22:08:09.893Z,922.27
2016-12-07T22:08:27.137Z,922.26
2016-12-07T22:08:43.848Z,922.27
2016-12-07T22:09:00.552Z,922.27
2016-12-07T22:09:17.269Z,922.29
2016-12-07T22:09:34.495Z,922.26
2016-12-07T22:09:51.693Z,922.29
2016-12-07T22:10:08.363Z,922.32
2016-12-07T22:10:25.036Z,922.3
2016-12-07T22:10:41.698Z,922.33
2016-12-07T22:10:58.887Z,922.32
2016-12-07T22:11:15.584Z,922.31
2016-12-07T22:11:32.264Z,922.3
2016-12-07T22:11:48.935Z,922.31
2016-12-07T22:12:05.627Z,922.32
2016-12-07T22:12:22.298Z,922.29
2016-12-07T22:12:38.969Z,922.31
2016-12-07T22:12:55.647Z,922.3
2016-12-07T22:13:12.317Z,922.33
2016-12-07T22:13:28.973Z,922.31
2016-12-07T22:13:45.630Z,922.35
2016-12-07T22:14:02.313Z,922.34
2016-12-07T22:14:18.986Z,922.32
2016-12-07T22:14:35.717Z,922.31
2016-12-07T22:14:52.406Z,922.33
2016-12-07T22:15:09.075Z,922.4
2016-12-07T22:15:25.722Z,922.44
2016-12-07T22:15:42.376Z,922.44
2016-12-07T22:15:59.030Z,922.43
2016-12-07T22:16:15.687Z,922.43
2016-12-07T22:16:32.346Z,922.46
2016-12-07T22:16:49.015Z,922.45
2016-12-07T22:17:05.668Z,922.45
2016-12-07T22:17:22.418Z,922.49
2016-12-07T22:17:39.093Z,922.5
2016-12-07T22:17:55.764Z,922.45
2016-12-07T22:18:12.464Z,922.49
2016-12-07T22:18:29.141Z,922.52
2016-12-07T22:18:45.852Z,922.54
2016-12-07T22:19:02.521Z,922.52
2016-12-07T22:19:19.228Z,922.53
2016-12-07T22:19:35.923Z,922.55
2016-12-07T22:19:53.115Z,922.54
2016-12-07T22:20:09.807Z,922.54
2016-12-07T22:20:26.499Z,922.52
2016-12-07T22:20:43.135Z,922.53
2016-12-07T22:20:59.807Z,922.49
2016-12-07T22:21:16.485Z,922.48
2016-12-07T22:21:33.154Z,922.47
2016-12-07T22:21:49.836Z,922.47
2016-12-07T22:22:07.022Z,922.47
2016-12-07T22:22:23.699Z,922.45
2016-12-07T22:22:40.360Z,922.4
2016-12-07T22:22:57.046Z,922.44
2016-12-07T22:23:13.721Z,922.47
2016-12-07T22:23:30.387Z,922.46
2016-12-07T22:23:47.059Z,922.48
2016-12-07T22:24:03.723Z,922.51
2016-12-07T22:24:20.399Z,922.46
2016-12-07T22:24:37.074Z,922.48
2016-12-07T22:24:53.742Z,922.47
2016-12-07T22:25:10.393Z,922.51
2016-12-07T22:25:27.065Z,922.54
2016-12-07T22:25:43.736Z,922.58
2016-12-07T22:26:01.445Z,922.57
2016-12-07T22:26:18.132Z,922.58
2016-12-07T22:26:34.777Z,922.56
2016-12-07T22:26:51.501Z,922.59
2016-12-07T22:27:22.804Z,922.6
2016-12-07T22:27:39.490Z,922.59
2016-12-07T22:27:56.201Z,922.58
2016-12-07T22:28:12.887Z,922.63
2016-12-07T22:28:29.570Z,922.62
2016-12-07T22:28:46.255Z,922.63
2016-12-07T22:29:02.936Z,922.62
2016-12-07T22:29:19.654Z,922.64
2016-12-07T22:29:36.336Z,922.63
2016-12-07T22:29:53.029Z,922.64
2016-12-07T22:30:09.711Z,922.62
2016-12-07T22:30:26.898Z,922.62
2016-12-07T22:30:43.567Z,922.61
2016-12-07T22:31:00.229Z,922.61
2016-12-07T22:31:16.890Z,922.62
2016-12-07T22:31:33.573Z,922.66
2016-12-07T22:31:50.245Z,922.65
2016-12-07T22:32:06.914Z,922.67
2016-12-07T22:32:23.600Z,922.68
2016-12-07T22:32:40.277Z,922.69
2016-12-07T22:32:56.957Z,922.69
2016-12-07T22:33:13.676Z,922.68
2016-12-07T22:33:30.357Z,922.7
2016-12-07T22:33:47.041Z,922.69
2016-12-07T22:34:03.692Z,922.69
2016-12-07T22:34:20.418Z,922.65
2016-12-07T22:34:37.108Z,922.72
2016-12-07T22:34:53.792Z,922.68
2016-12-07T22:35:10.481Z,922.69
2016-12-07T22:35:27.160Z,922.69
2016-12-07T22:35:43.844Z,922.68
2016-12-07T22:36:00.535Z,922.69
2016-12-07T22:36:17.204Z,922.7
2016-12-07T22:36:33.865Z,922.7
2016-12-07T22:36:50.535Z,922.7
2016-12-07T22:37:07.205Z,922.68
2016-12-07T22:37:23.869Z,922.69
2016-12-07T22:37:40.525Z,922.67
2016-12-07T22:37:57.212Z,922.67
2016-12-07T22:38:13.899Z,922.68
2016-12-07T22:38:30.594Z,922.67
2016-12-07T22:38:47.301Z,922.64
2016-12-07T22:39:03.969Z,922.67
2016-12-07T22:39:20.640Z,922.65
2016-12-07T22:39:37.324Z,922.64
2016-12-07T22:39:53.980Z,922.63
2016-12-07T22:40:10.693Z,922.65
2016-12-07T22:40:27.364Z,922.62
2016-12-07T22:40:44.029Z,922.68
2016-12-07T22:41:01.227Z,922.63
2016-12-07T22:41:17.907Z,922.61
2016-12-07T22:41:34.589Z,922.61
2016-12-07T22:41:51.262Z,922.62
2016-12-07T22:42:08.475Z,922.6
2016-12-07T22:42:25.158Z,922.61
2016-12-07T22:42:41.857Z,922.6
2016-12-07T22:42:58.516Z,922.58
2016-12-07T22:43:15.163Z,922.56
2016-12-07T22:43:32.401Z,922.56
2016-12-07T22:43:49.070Z,922.57
2016-12-07T22:44:05.774Z,922.53
2016-12-07T22:44:22.435Z,922.54
2016-12-07T22:44:39.121Z,922.55
2016-12-07T22:44:55.839Z,922.57
2016-12-07T22:45:13.016Z,922.61
2016-12-07T22:45:30.175Z,922.61
2016-12-07T22:45:46.921Z,922.6
2016-12-07T22:46:03.686Z,922.57
2016-12-07T22:46:20.372Z,922.64
2016-12-07T22:46:37.042Z,922.61
2016-12-07T22:46:53.724Z,922.63
2016-12-07T22:47:10.907Z,922.65
2016-12-07T22:47:27.577Z,922.65
2016-12-07T22:47:44.245Z,922.64
2016-12-07T22:48:00.916Z,922.64
2016-12-07T22:48:17.610Z,922.65
2016-12-07T22:48:34.272Z,922.67
2016-12-07T22:48:50.945Z,922.66
2016-12-07T22:49:07.624Z,922.68
2016-12-07T22:49:24.297Z,922.7
2016-12-07T22:49:55.482Z,922.75
2016-12-07T22:50:12.287Z,922.78
2016-12-07T22:50:29.005Z,922.81
2016-12-07T22:50:45.746Z,922.79
2016-12-07T22:51:02.931Z,922.83
2016-12-07T22:51:19.641Z,922.88
2016-12-07T22:51:36.538Z,922.83
2016-12-07T22:51:53.762Z,922.81
2016-12-07T22:52:10.503Z,922.86
2016-12-07T22:52:27.193Z,922.84
2016-12-07T22:52:43.858Z,922.84
2016-12-07T22:53:00.564Z,922.84
2016-12-07T22:53:17.264Z,922.87
2016-12-07T22:53:34.034Z,922.86
2016-12-07T22:53:50.765Z,922.89
2016-12-07T22:54:07.474Z,922.94
2016-12-07T22:54:24.651Z,922.88
2016-12-07T22:54:41.322Z,922.87
2016-12-07T22:54:58.001Z,922.91
2016-12-07T22:55:14.676Z,922.91
2016-12-07T22:55:31.379Z,922.89
2016-12-07T22:55:48.608Z,922.91
2016-12-07T22:56:05.369Z,922.87
2016-12-07T22:56:22.169Z,922.87
2016-12-07T22:56:38.876Z,922.92
2016-12-07T22:56:55.647Z,922.93
2016-12-07T22:57:12.469Z,922.92
2016-12-07T22:57:29.964Z,922.92
2016-12-07T22:57:46.638Z,922.9
2016-12-07T22:58:03.317Z,922.92
2016-12-07T22:58:19.981Z,922.94
2016-12-07T22:58:36.655Z,922.98
2016-12-07T22:58:53.378Z,922.96
2016-12-07T22:59:10.073Z,922.99
2016-12-07T22:59:26.832Z,923
2016-12-07T22:59:43.757Z,923
2016-12-07T23:00:00.414Z,923.01
2016-12-07T23:00:17.100Z,922.99
2016-12-07T23:00:33.782Z,923.03
2016-12-07T23:00:50.945Z,923.07
2016-12-07T23:01:07.637Z,923.03
2016-12-07T23:01:24.300Z,923.06
2016-12-07T23:01:40.983Z,923.08
2016-12-07T23:01:57.640Z,923.06
2016-12-07T23:02:14.329Z,923.06
2016-12-07T23:02:31.003Z,923.09
2016-12-07T23:02:47.680Z,923.11